createdAt,value
2023-03-30T00:00:57.714Z,101625.31
2023-03-30T00:03:27.490Z,101627.59
2023-03-30T00:05:56.783Z,101621.66
2023-03-30T00:08:28.013Z,101617.47
2023-03-30T00:11:00.624Z,101623.22
2023-03-30T00:13:28.579Z,101617.31
2023-03-30T00:15:57.570Z,101628.28
2023-03-30T00:18:25.302Z,101619.88
2023-03-30T00:20:53.517Z,101613.03
2023-03-30T00:23:21.373Z,101609.66
2023-03-30T00:25:49.263Z,101606.28
2023-03-30T00:28:16.948Z,101617.09
2023-03-30T00:30:44.706Z,101612.00
2023-03-30T00:33:13.993Z,101616.31
2023-03-30T00:35:41.758Z,101611.16
2023-03-30T00:38:09.447Z,101614.66
2023-03-30T00:40:38.434Z,101618.84
2023-03-30T00:43:07.527Z,101611.13
2023-03-30T00:45:36.632Z,101624.59
2023-03-30T00:48:06.511Z,101621.97
2023-03-30T00:50:39.010Z,101609.25
2023-03-30T00:53:10.102Z,101608.44
2023-03-30T00:55:39.922Z,101622.88
2023-03-30T00:58:10.017Z,101624.41
2023-03-30T01:00:39.623Z,101620.97
2023-03-30T01:03:11.729Z,101615.03
2023-03-30T01:05:42.343Z,101621.84
2023-03-30T01:08:14.011Z,101625.16
2023-03-30T01:10:41.800Z,101619.22
2023-03-30T01:13:09.879Z,101616.56
2023-03-30T01:15:40.984Z,101618.19
2023-03-30T01:18:19.729Z,101617.00
2023-03-30T01:21:05.480Z,101616.81
2023-03-30T01:23:52.068Z,101621.81
2023-03-30T01:26:35.696Z,101618.19
2023-03-30T01:29:09.019Z,101630.50
2023-03-30T01:31:50.383Z,101632.75
2023-03-30T01:34:32.364Z,101628.44
2023-03-30T01:37:29.988Z,101627.69
2023-03-30T01:40:02.226Z,101614.66
2023-03-30T01:42:35.908Z,101607.13
2023-03-30T01:45:09.915Z,101612.19
2023-03-30T01:47:40.750Z,101608.09
2023-03-30T01:50:10.364Z,101606.50
2023-03-30T01:52:41.222Z,101597.28
2023-03-30T01:55:14.834Z,101600.25
2023-03-30T01:57:45.542Z,101601.91
2023-03-30T02:00:15.102Z,101598.66
2023-03-30T02:02:45.376Z,101608.75
2023-03-30T02:05:18.013Z,101603.66
2023-03-30T02:07:47.924Z,101616.84
2023-03-30T02:10:18.894Z,101608.13
2023-03-30T02:12:47.910Z,101616.56
2023-03-30T02:15:17.945Z,101619.88
2023-03-30T02:17:47.600Z,101620.56
2023-03-30T02:20:17.581Z,101617.41
2023-03-30T02:22:45.847Z,101602.25
2023-03-30T02:25:14.350Z,101618.25
2023-03-30T02:27:43.492Z,101616.59
2023-03-30T02:30:11.576Z,101615.63
2023-03-30T02:32:42.469Z,101614.69
2023-03-30T02:35:22.328Z,101616.25
2023-03-30T02:38:02.184Z,101613.84
2023-03-30T02:40:34.935Z,101614.75
2023-03-30T02:43:14.922Z,101616.16
2023-03-30T02:45:47.631Z,101604.88
2023-03-30T02:48:23.066Z,101608.03
2023-03-30T02:50:55.611Z,101613.03
2023-03-30T02:53:27.400Z,101610.41
2023-03-30T02:56:03.964Z,101608.72
2023-03-30T02:58:36.226Z,101612.00
2023-03-30T03:01:06.044Z,101603.47
2023-03-30T03:03:36.042Z,101614.25
2023-03-30T03:06:04.778Z,101607.03
2023-03-30T03:08:35.260Z,101605.25
2023-03-30T03:11:03.303Z,101600.16
2023-03-30T03:13:32.098Z,101597.75
2023-03-30T03:16:04.069Z,101602.16
2023-03-30T03:18:32.062Z,101599.69
2023-03-30T03:20:59.725Z,101592.88
2023-03-30T03:23:27.450Z,101588.09
2023-03-30T03:25:55.156Z,101590.66
2023-03-30T03:28:22.833Z,101585.63
2023-03-30T03:30:50.573Z,101587.53
2023-03-30T03:33:20.416Z,101572.75
2023-03-30T03:35:48.336Z,101574.41
2023-03-30T03:38:16.180Z,101564.91
2023-03-30T03:40:43.887Z,101565.66
2023-03-30T03:43:11.548Z,101569.09
2023-03-30T03:45:39.250Z,101559.97
2023-03-30T03:48:08.355Z,101562.53
2023-03-30T03:50:38.288Z,101565.16
2023-03-30T03:53:06.062Z,101561.69
2023-03-30T03:55:35.449Z,101569.34
2023-03-30T03:58:03.200Z,101566.59
2023-03-30T04:00:30.939Z,101565.81
2023-03-30T04:02:59.036Z,101574.34
2023-03-30T04:05:27.029Z,101560.81
2023-03-30T04:07:56.870Z,101559.97
2023-03-30T04:10:27.214Z,101561.66
2023-03-30T04:12:56.012Z,101557.53
2023-03-30T04:15:23.696Z,101561.53
2023-03-30T04:17:58.140Z,101559.13
2023-03-30T04:20:26.098Z,101561.03
2023-03-30T04:22:54.490Z,101570.34
2023-03-30T04:25:25.787Z,101570.97
2023-03-30T04:27:53.676Z,101564.91
2023-03-30T04:30:22.477Z,101565.66
2023-03-30T04:33:02.546Z,101565.63
2023-03-30T04:35:31.935Z,101566.34
2023-03-30T04:38:00.246Z,101569.63
2023-03-30T04:40:29.362Z,101571.06
2023-03-30T04:43:02.224Z,101568.41
2023-03-30T04:45:33.032Z,101561.41
2023-03-30T04:48:00.769Z,101565.72
2023-03-30T04:50:28.502Z,101561.41
2023-03-30T04:52:56.241Z,101567.31
2023-03-30T04:55:24.038Z,101561.50
2023-03-30T04:57:53.203Z,101556.00
2023-03-30T05:00:21.360Z,101551.13
2023-03-30T05:02:49.109Z,101546.91
2023-03-30T05:05:16.975Z,101552.81
2023-03-30T05:07:44.700Z,101556.09
2023-03-30T05:10:12.352Z,101548.44
2023-03-30T05:12:39.968Z,101551.41
2023-03-30T05:15:09.816Z,101553.38
2023-03-30T05:17:38.610Z,101548.53
2023-03-30T05:20:08.593Z,101547.06
2023-03-30T05:22:36.580Z,101546.28
2023-03-30T05:25:04.468Z,101549.47
2023-03-30T05:27:32.142Z,101552.28
2023-03-30T05:29:59.896Z,101546.63
2023-03-30T05:32:29.331Z,101535.91
2023-03-30T05:34:57.051Z,101537.06
2023-03-30T05:37:24.733Z,101533.13
2023-03-30T05:39:52.400Z,101524.78
2023-03-30T05:42:20.104Z,101532.38
2023-03-30T05:44:47.785Z,101528.16
2023-03-30T05:47:16.526Z,101520.78
2023-03-30T05:49:45.986Z,101525.19
2023-03-30T05:52:13.663Z,101523.63
2023-03-30T05:54:41.431Z,101528.84
2023-03-30T05:57:09.142Z,101521.31
2023-03-30T05:59:37.369Z,101520.47
2023-03-30T06:02:08.410Z,101517.28
2023-03-30T06:04:37.283Z,101520.09
2023-03-30T06:07:06.533Z,101509.44
2023-03-30T06:09:34.226Z,101519.78
2023-03-30T06:12:02.637Z,101529.28
2023-03-30T06:14:30.270Z,101517.00
2023-03-30T06:16:58.242Z,101511.22
2023-03-30T06:19:26.006Z,101513.78
2023-03-30T06:21:54.535Z,101512.31
2023-03-30T06:24:23.663Z,101513.38
2023-03-30T06:26:51.473Z,101512.75
2023-03-30T06:29:19.332Z,101514.72
2023-03-30T06:31:47.988Z,101502.34
2023-03-30T06:34:15.699Z,101504.31
2023-03-30T06:36:46.082Z,101509.63
2023-03-30T06:39:13.971Z,101508.19
2023-03-30T06:41:43.103Z,101502.28
2023-03-30T06:44:14.737Z,101496.91
2023-03-30T06:46:42.772Z,101489.59
2023-03-30T06:49:13.007Z,101489.34
2023-03-30T06:51:40.681Z,101490.63
2023-03-30T06:54:08.293Z,101482.72
2023-03-30T06:56:35.989Z,101482.13
2023-03-30T06:59:05.735Z,101484.56
2023-03-30T07:01:33.562Z,101495.09
2023-03-30T07:04:02.660Z,101486.38
2023-03-30T07:06:30.493Z,101489.66
2023-03-30T07:08:58.111Z,101486.13
2023-03-30T07:11:26.242Z,101490.28
2023-03-30T07:13:56.242Z,101480.97
2023-03-30T07:16:25.781Z,101488.63
2023-03-30T07:18:55.512Z,101486.94
2023-03-30T07:21:23.378Z,101486.09
2023-03-30T07:23:51.714Z,101492.94
2023-03-30T07:26:19.416Z,101488.69
2023-03-30T07:28:47.030Z,101493.00
2023-03-30T07:31:15.324Z,101477.84
2023-03-30T07:33:44.580Z,101480.50
2023-03-30T07:36:12.295Z,101481.38
2023-03-30T07:38:40.154Z,101474.66
2023-03-30T07:41:08.634Z,101476.31
2023-03-30T07:43:36.452Z,101474.72
2023-03-30T07:46:04.302Z,101471.34
2023-03-30T07:48:31.978Z,101468.78
2023-03-30T07:51:05.684Z,101473.03
2023-03-30T07:53:33.715Z,101470.63
2023-03-30T07:56:01.689Z,101466.47
2023-03-30T07:58:29.444Z,101461.47
2023-03-30T08:00:57.223Z,101473.41
2023-03-30T08:03:25.300Z,101472.63
2023-03-30T08:05:54.069Z,101459.94
2023-03-30T08:08:23.233Z,101462.50
2023-03-30T08:10:50.958Z,101456.56
2023-03-30T08:13:20.597Z,101455.78
2023-03-30T08:15:50.908Z,101449.00
2023-03-30T08:18:18.642Z,101451.59
2023-03-30T08:20:46.314Z,101447.41
2023-03-30T08:23:14.039Z,101444.03
2023-03-30T08:25:45.264Z,101454.25
2023-03-30T08:28:14.435Z,101459.41
2023-03-30T08:30:42.058Z,101456.00
2023-03-30T08:33:09.951Z,101454.34
2023-03-30T08:35:37.587Z,101453.50
2023-03-30T08:38:05.275Z,101444.19
2023-03-30T08:40:32.989Z,101444.19
2023-03-30T08:43:10.448Z,101445.88
2023-03-30T08:45:41.156Z,101439.94
2023-03-30T08:48:16.270Z,101437.38
2023-03-30T08:50:47.649Z,101439.09
2023-03-30T08:53:15.386Z,101433.97
2023-03-30T08:55:44.408Z,101434.84
2023-03-30T08:58:17.606Z,101433.13
2023-03-30T09:00:47.789Z,101430.56
2023-03-30T09:03:19.333Z,101426.28
2023-03-30T09:05:51.132Z,101421.16
2023-03-30T09:08:21.649Z,101419.41
2023-03-30T09:10:53.497Z,101418.56
2023-03-30T09:13:24.714Z,101413.41
2023-03-30T09:15:57.046Z,101405.69
2023-03-30T09:18:27.050Z,101416.72
2023-03-30T09:20:56.352Z,101416.59
2023-03-30T09:23:25.572Z,101407.97
2023-03-30T09:26:01.481Z,101405.25
2023-03-30T09:28:34.528Z,101401.75
2023-03-30T09:31:04.432Z,101404.13
2023-03-30T09:33:37.044Z,101394.66
2023-03-30T09:36:11.747Z,101398.03
2023-03-30T09:38:42.063Z,101391.09
2023-03-30T09:41:19.265Z,101391.91
2023-03-30T09:43:49.071Z,101391.78
2023-03-30T09:46:16.935Z,101387.38
2023-03-30T09:48:45.496Z,101387.19
2023-03-30T09:51:20.868Z,101381.91
2023-03-30T09:53:49.977Z,101375.81
2023-03-30T09:56:28.488Z,101368.06
2023-03-30T09:58:57.717Z,101364.63
2023-03-30T10:01:35.934Z,101352.50
2023-03-30T10:04:08.392Z,101340.34
2023-03-30T10:06:38.265Z,101342.88
2023-03-30T10:09:09.002Z,101332.59
2023-03-30T10:11:38.604Z,101327.38
2023-03-30T10:14:07.898Z,101331.38
2023-03-30T10:16:36.705Z,101344.03
2023-03-30T10:19:05.704Z,101343.06
2023-03-30T10:21:37.776Z,101349.81
2023-03-30T10:24:08.196Z,101337.72
2023-03-30T10:26:37.630Z,101329.94
2023-03-30T10:29:07.414Z,101333.22
2023-03-30T10:31:38.052Z,101330.66
2023-03-30T10:34:06.857Z,101327.16
2023-03-30T10:36:37.128Z,101322.88
2023-03-30T10:39:07.488Z,101315.84
2023-03-30T10:41:37.165Z,101319.25
2023-03-30T10:44:17.156Z,101311.38
2023-03-30T10:46:46.383Z,101323.13
2023-03-30T10:49:18.262Z,101307.50
2023-03-30T10:51:54.120Z,101309.09
2023-03-30T10:54:27.385Z,101313.34
2023-03-30T10:56:56.583Z,101304.69
2023-03-30T10:59:32.324Z,101302.06
2023-03-30T11:02:18.166Z,101304.63
2023-03-30T11:04:47.323Z,101307.09
2023-03-30T11:07:18.685Z,101302.03
2023-03-30T11:09:49.071Z,101302.63
2023-03-30T11:12:19.906Z,101300.81
2023-03-30T11:14:48.376Z,101310.03
2023-03-30T11:17:21.415Z,101304.88
2023-03-30T11:19:51.236Z,101298.81
2023-03-30T11:22:25.591Z,101294.47
2023-03-30T11:24:55.270Z,101290.06
2023-03-30T11:27:27.994Z,101286.47
2023-03-30T11:29:58.181Z,101289.91
2023-03-30T11:32:31.114Z,101279.56
2023-03-30T11:35:02.776Z,101281.97
2023-03-30T11:37:34.351Z,101281.97
2023-03-30T11:40:11.309Z,101281.91
2023-03-30T11:42:39.119Z,101280.97
2023-03-30T11:45:18.743Z,101274.09
2023-03-30T11:48:01.601Z,101276.66
2023-03-30T11:50:36.221Z,101266.34
2023-03-30T11:53:11.325Z,101262.56
2023-03-30T11:55:45.432Z,101261.75
2023-03-30T11:58:18.544Z,101257.38
2023-03-30T12:00:53.746Z,101263.50
2023-03-30T12:03:28.115Z,101262.59
2023-03-30T12:06:01.436Z,101255.84
2023-03-30T12:08:42.205Z,101259.31
2023-03-30T12:11:13.576Z,101255.09
2023-03-30T12:13:50.783Z,101250.94
2023-03-30T12:16:20.889Z,101249.25
2023-03-30T12:18:54.930Z,101242.41
2023-03-30T12:21:29.912Z,101244.06
2023-03-30T12:24:02.217Z,101232.72
2023-03-30T12:26:31.229Z,101237.69
2023-03-30T12:31:49.377Z,101223.56
2023-03-30T12:34:17.576Z,101219.94
2023-03-30T12:36:51.064Z,101223.34
2023-03-30T12:39:25.979Z,101221.19
2023-03-30T12:42:04.381Z,101215.19
2023-03-30T12:44:36.438Z,101206.63
2023-03-30T12:47:12.286Z,101209.28
2023-03-30T12:49:47.160Z,101201.38
2023-03-30T12:52:18.057Z,101204.00
2023-03-30T12:54:54.908Z,101212.56
2023-03-30T12:57:29.273Z,101202.13
2023-03-30T13:00:09.623Z,101198.31
2023-03-30T13:02:46.475Z,101193.22
2023-03-30T13:05:20.995Z,101198.31
2023-03-30T13:07:51.309Z,101194.81
2023-03-30T13:10:36.922Z,101188.97
2023-03-30T13:13:05.949Z,101192.56
2023-03-30T13:15:35.980Z,101186.63
2023-03-30T13:18:04.953Z,101186.00
2023-03-30T13:20:34.220Z,101183.41
2023-03-30T13:23:16.696Z,101168.56
2023-03-30T13:25:49.645Z,101168.66
2023-03-30T13:28:37.402Z,101169.53
2023-03-30T13:31:11.599Z,101167.81
2023-03-30T13:33:42.745Z,101163.41
2023-03-30T13:36:13.570Z,101164.13
2023-03-30T13:38:53.174Z,101157.34
2023-03-30T13:41:28.231Z,101148.75
2023-03-30T13:44:05.594Z,101148.72
2023-03-30T13:46:36.536Z,101145.16
2023-03-30T13:49:16.601Z,101146.63
2023-03-30T13:51:44.392Z,101139.69
2023-03-30T13:54:15.013Z,101135.31
2023-03-30T13:56:47.168Z,101132.81
2023-03-30T13:59:17.470Z,101126.72
2023-03-30T14:01:48.232Z,101113.78
2023-03-30T14:04:16.379Z,101118.09
2023-03-30T14:06:45.806Z,101111.38
2023-03-30T14:09:14.533Z,101110.75
2023-03-30T14:11:44.751Z,101110.97
2023-03-30T14:14:17.803Z,101096.38
2023-03-30T14:16:45.445Z,101103.16
2023-03-30T14:19:18.659Z,101099.16
2023-03-30T14:21:47.441Z,101097.59
2023-03-30T14:24:17.024Z,101103.78
2023-03-30T14:26:46.787Z,101099.59
2023-03-30T14:29:28.596Z,101099.47
2023-03-30T14:32:07.986Z,101086.56
2023-03-30T14:34:37.528Z,101084.81
2023-03-30T14:37:06.489Z,101087.94
2023-03-30T14:39:37.178Z,101077.44
2023-03-30T14:42:10.406Z,101073.78
2023-03-30T14:44:41.417Z,101067.00
2023-03-30T14:47:09.310Z,101067.03
2023-03-30T14:49:37.792Z,101071.16
2023-03-30T14:52:09.450Z,101061.56
2023-03-30T14:54:38.222Z,101060.59
2023-03-30T14:57:10.374Z,101062.28
2023-03-30T14:59:44.452Z,101062.44
2023-03-30T15:02:19.215Z,101062.53
2023-03-30T15:04:47.080Z,101056.66
2023-03-30T15:07:16.259Z,101058.50
2023-03-30T15:09:46.090Z,101047.50
2023-03-30T15:12:19.177Z,101045.06
2023-03-30T15:14:49.209Z,101040.06
2023-03-30T15:17:19.662Z,101038.56
2023-03-30T15:19:48.463Z,101035.25
2023-03-30T15:22:21.812Z,101046.53
2023-03-30T15:24:49.535Z,101047.47
2023-03-30T15:27:17.892Z,101050.09
2023-03-30T15:29:47.198Z,101040.69
2023-03-30T15:32:18.295Z,101042.44
2023-03-30T15:35:04.121Z,101038.94
2023-03-30T15:37:33.228Z,101033.63
2023-03-30T15:40:01.053Z,101034.34
2023-03-30T15:42:30.551Z,101021.47
2023-03-30T15:45:04.869Z,101029.91
2023-03-30T15:47:34.776Z,101026.53
2023-03-30T15:50:02.727Z,101028.31
2023-03-30T15:52:34.083Z,101029.19
2023-03-30T15:55:04.108Z,101021.53
2023-03-30T15:57:32.038Z,101018.94
2023-03-30T16:00:01.932Z,101019.84
2023-03-30T16:02:39.161Z,101025.03
2023-03-30T16:05:07.879Z,101024.31
2023-03-30T16:07:36.281Z,101025.31
2023-03-30T16:10:03.967Z,101025.47
2023-03-30T16:12:32.355Z,101027.28
2023-03-30T16:15:00.019Z,101027.44
2023-03-30T16:17:27.677Z,101025.03
2023-03-30T16:19:56.701Z,101020.91
2023-03-30T16:22:24.452Z,101015.88
2023-03-30T16:24:53.298Z,101016.00
2023-03-30T16:27:22.098Z,101019.53
2023-03-30T16:29:49.809Z,101018.88
2023-03-30T16:32:17.606Z,101017.31
2023-03-30T16:34:46.265Z,101020.81
2023-03-30T16:37:15.334Z,101014.88
2023-03-30T16:39:43.749Z,101016.75
2023-03-30T16:42:11.463Z,101024.66
2023-03-30T16:44:39.109Z,101013.69
2023-03-30T16:47:07.293Z,101018.06
2023-03-30T16:49:34.956Z,101016.41
2023-03-30T16:52:03.012Z,101017.38
2023-03-30T16:54:33.153Z,101020.00
2023-03-30T16:57:01.365Z,101010.75
2023-03-30T16:59:30.743Z,101016.91
2023-03-30T17:01:58.880Z,101016.19
2023-03-30T17:04:26.952Z,101012.91
2023-03-30T17:06:55.114Z,101011.41
2023-03-30T17:09:23.362Z,101002.94
2023-03-30T17:11:52.527Z,101005.66
2023-03-30T17:14:23.397Z,101010.13
2023-03-30T17:16:51.182Z,101012.03
2023-03-30T17:19:18.841Z,101018.97
2023-03-30T17:21:46.594Z,101007.00
2023-03-30T17:24:16.502Z,101014.75
2023-03-30T17:26:44.256Z,101012.22
2023-03-30T17:29:13.302Z,101012.38
2023-03-30T17:31:45.866Z,101016.81
2023-03-30T17:34:14.005Z,101011.00
2023-03-30T17:36:41.694Z,101014.53
2023-03-30T17:39:11.063Z,101021.41
2023-03-30T17:41:39.017Z,101026.63
2023-03-30T17:44:08.783Z,101028.44
2023-03-30T17:46:37.977Z,101028.59
2023-03-30T17:49:05.706Z,101027.09
2023-03-30T17:51:33.378Z,101026.38
2023-03-30T17:54:01.090Z,101020.41
2023-03-30T17:56:28.903Z,101036.63
2023-03-30T17:58:56.564Z,101029.94
2023-03-30T18:01:24.252Z,101033.47
2023-03-30T18:03:53.368Z,101030.91
2023-03-30T18:06:21.110Z,101028.28
2023-03-30T18:08:48.900Z,101031.81
2023-03-30T18:11:16.512Z,101037.00
2023-03-30T18:13:44.179Z,101035.38
2023-03-30T18:16:13.118Z,101036.25
2023-03-30T18:18:40.867Z,101029.50
2023-03-30T18:21:11.607Z,101037.31
2023-03-30T18:23:39.327Z,101035.69
2023-03-30T18:26:10.509Z,101037.47
2023-03-30T18:28:40.634Z,101036.69
2023-03-30T18:31:08.821Z,101036.72
2023-03-30T18:33:36.663Z,101036.78
2023-03-30T18:36:08.069Z,101035.13
2023-03-30T18:38:37.725Z,101044.63
2023-03-30T18:41:05.433Z,101048.16
2023-03-30T18:43:33.495Z,101044.81
2023-03-30T18:46:02.252Z,101040.63
2023-03-30T18:48:30.487Z,101034.72
2023-03-30T18:50:58.830Z,101031.28
2023-03-30T18:53:27.173Z,101039.00
2023-03-30T18:55:57.477Z,101040.69
2023-03-30T18:58:26.412Z,101033.09
2023-03-30T19:00:54.592Z,101032.22
2023-03-30T19:03:23.008Z,101025.44
2023-03-30T19:05:51.416Z,101027.97
2023-03-30T19:08:20.244Z,101024.53
2023-03-30T19:10:49.438Z,101025.38
2023-03-30T19:13:19.216Z,101037.31
2023-03-30T19:15:47.732Z,101022.91
2023-03-30T19:18:15.540Z,101022.84
2023-03-30T19:20:43.240Z,101018.56
2023-03-30T19:23:12.486Z,101013.41
2023-03-30T19:25:40.610Z,101014.31
2023-03-30T19:28:08.653Z,101020.25
2023-03-30T19:30:39.655Z,101008.16
2023-03-30T19:33:09.183Z,101012.28
2023-03-30T19:35:38.021Z,101010.47
2023-03-30T19:38:05.730Z,101006.09
2023-03-30T19:40:33.430Z,101000.03
2023-03-30T19:43:01.085Z,100993.97
2023-03-30T19:45:28.896Z,100990.53
2023-03-30T19:47:58.052Z,100993.00
2023-03-30T19:50:26.401Z,100984.34
2023-03-30T19:52:55.254Z,100989.41
2023-03-30T19:55:22.955Z,100993.63
2023-03-30T19:57:50.578Z,100991.00
2023-03-30T20:00:18.800Z,100986.69
2023-03-30T20:02:47.432Z,100984.06
2023-03-30T20:05:16.851Z,100990.84
2023-03-30T20:07:44.883Z,100975.44
2023-03-30T20:10:13.531Z,100977.03
2023-03-30T20:12:41.204Z,100968.47
2023-03-30T20:15:09.700Z,100964.16
2023-03-30T20:17:38.290Z,100955.63
2023-03-30T20:20:09.092Z,100958.16
2023-03-30T20:22:39.853Z,100954.72
2023-03-30T20:25:08.675Z,100959.88
2023-03-30T20:27:36.569Z,100965.81
2023-03-30T20:30:05.185Z,100964.03
2023-03-30T20:32:33.079Z,100961.44
2023-03-30T20:35:00.799Z,100951.13
2023-03-30T20:37:28.541Z,100949.44
2023-03-30T20:40:03.532Z,100946.81
2023-03-30T20:42:31.929Z,100947.59
2023-03-30T20:45:01.213Z,100949.34
2023-03-30T20:47:30.136Z,100951.06
2023-03-30T20:49:58.455Z,100956.09
2023-03-30T20:52:26.179Z,100947.47
2023-03-30T20:54:54.397Z,100948.25
2023-03-30T20:57:25.218Z,100948.16
2023-03-30T20:59:54.250Z,100943.03
2023-03-30T21:02:22.107Z,100939.56
2023-03-30T21:04:50.417Z,100932.72
2023-03-30T21:07:18.394Z,100934.38
2023-03-30T21:09:47.308Z,100928.41
2023-03-30T21:12:15.076Z,100931.84
2023-03-30T21:14:45.873Z,100931.84
2023-03-30T21:17:13.656Z,100941.19
2023-03-30T21:19:41.434Z,100931.75
2023-03-30T21:22:11.506Z,100926.59
2023-03-30T21:24:39.185Z,100927.47
2023-03-30T21:27:06.872Z,100926.56
2023-03-30T21:29:34.589Z,100930.03
2023-03-30T21:32:03.629Z,100926.56
2023-03-30T21:34:31.399Z,100929.97
2023-03-30T21:36:59.563Z,100930.81
2023-03-30T21:39:27.435Z,100931.66
2023-03-30T21:41:55.100Z,100927.38
2023-03-30T21:44:23.209Z,100926.50
2023-03-30T21:46:50.937Z,100925.69
2023-03-30T21:49:20.045Z,100927.38
2023-03-30T21:51:48.769Z,100927.34
2023-03-30T21:54:17.608Z,100919.63
2023-03-30T21:56:45.301Z,100921.38
2023-03-30T21:59:13.022Z,100910.41
2023-03-30T22:01:40.907Z,100910.53
2023-03-30T22:04:08.662Z,100918.28
2023-03-30T22:06:37.705Z,100906.25
2023-03-30T22:09:05.955Z,100904.47
2023-03-30T22:11:33.685Z,100916.41
2023-03-30T22:14:01.323Z,100910.44
2023-03-30T22:16:31.459Z,100907.88
2023-03-30T22:18:59.200Z,100907.88
2023-03-30T22:21:29.159Z,100915.59
2023-03-30T22:23:58.266Z,100907.09
2023-03-30T22:26:27.261Z,100904.56
2023-03-30T22:28:55.156Z,100903.66
2023-03-30T22:31:22.892Z,100902.78
2023-03-30T22:33:50.849Z,100898.47
2023-03-30T22:36:20.491Z,100900.16
2023-03-30T22:38:48.415Z,100902.72
2023-03-30T22:41:18.851Z,100896.81
2023-03-30T22:43:46.842Z,100891.69
2023-03-30T22:46:14.529Z,100889.16
2023-03-30T22:48:42.395Z,100890.06
2023-03-30T22:51:14.152Z,100887.47
2023-03-30T22:53:42.074Z,100885.72
2023-03-30T22:56:09.747Z,100876.34
2023-03-30T22:58:38.869Z,100879.81
2023-03-30T23:01:10.173Z,100880.66
2023-03-30T23:03:38.077Z,100880.63
2023-03-30T23:06:06.039Z,100880.63
2023-03-30T23:08:33.848Z,100876.41
2023-03-30T23:11:04.954Z,100867.00
2023-03-30T23:13:33.381Z,100866.94
2023-03-30T23:16:02.397Z,100867.75
2023-03-30T23:18:30.061Z,100866.06
2023-03-30T23:20:58.084Z,100860.09
2023-03-30T23:23:25.911Z,100855.81
2023-03-30T23:25:54.117Z,100858.34
2023-03-30T23:28:21.716Z,100855.81
2023-03-30T23:30:49.408Z,100853.19
2023-03-30T23:33:18.490Z,100848.16
2023-03-30T23:35:48.767Z,100846.53
2023-03-30T23:38:17.015Z,100841.38
2023-03-30T23:40:44.971Z,100835.34
2023-03-30T23:43:12.631Z,100840.50
2023-03-30T23:45:43.110Z,100848.19
2023-03-30T23:48:10.848Z,100841.34
2023-03-30T23:50:40.037Z,100833.75
2023-03-30T23:53:07.698Z,100831.94
2023-03-30T23:55:35.321Z,100837.13
2023-03-30T23:58:02.985Z,100826.06
